LVADT SUMU-SABE
Flight info
| Callsign | LVADT |
|---|---|
| Flight time | 0h 35m |
| Altitude | 18000 |
| Route | DAGUS DCT UGIMI UGIMI8Q |
| Aircraft | C700/M-SBDGHM1RWXY/LB2 |
Departure
| Time | 2026-04-21 22:05 |
|---|---|
| Airport | Carrasco General Cesáreo L. Berisso International Airport (SUMU) |
Arrival
| Time | 2026-04-21 22:41 |
|---|---|
| Airport | Aeroparque Jorge Newbery (SABE) |
| Time | Latitude | Longitude | Altitude | Speed | Heading |
|---|---|---|---|---|---|
| 2026-04-21 21:48 | -34.83863 | -56.02461 | 76 ft | 0 kts | 0° |
| 2026-04-21 21:57 | -34.83865 | -56.02461 | 76 ft | 2 kts | 0° |
| 2026-04-21 21:57 | -34.83882 | -56.02462 | 75 ft | 2 kts | 3° |
| 2026-04-21 21:58 | -34.83898 | -56.02462 | 69 ft | 2 kts | 0° |
| 2026-04-21 21:58 | -34.83915 | -56.02462 | 70 ft | 2 kts | 360° |
| 2026-04-21 21:58 | -34.83931 | -56.02462 | 75 ft | 2 kts | 354° |
| 2026-04-21 21:58 | -34.83944 | -56.02452 | 73 ft | 2 kts | 287° |
| 2026-04-21 21:59 | -34.83946 | -56.02444 | 74 ft | 0 kts | 276° |
| 2026-04-21 22:00 | -34.83943 | -56.02474 | 71 ft | 12 kts | 275° |
| 2026-04-21 22:00 | -34.83944 | -56.02641 | 76 ft | 23 kts | 268° |
| 2026-04-21 22:00 | -34.83975 | -56.02722 | 76 ft | 9 kts | 234° |
| 2026-04-21 22:00 | -34.84009 | -56.02802 | 75 ft | 12 kts | 258° |
| 2026-04-21 22:01 | -34.84010 | -56.02919 | 70 ft | 15 kts | 275° |
| 2026-04-21 22:01 | -34.84009 | -56.03059 | 76 ft | 18 kts | 253° |
| 2026-04-21 22:01 | -34.84069 | -56.03211 | 76 ft | 21 kts | 240° |
| 2026-04-21 22:01 | -34.84145 | -56.03379 | 75 ft | 24 kts | 243° |
| 2026-04-21 22:02 | -34.84174 | -56.03451 | 72 ft | 0 kts | 241° |
| 2026-04-21 22:04 | -34.84175 | -56.03454 | 73 ft | 5 kts | 241° |
| 2026-04-21 22:04 | -34.84216 | -56.03546 | 72 ft | 28 kts | 242° |
| 2026-04-21 22:04 | -34.84185 | -56.03644 | 76 ft | 13 kts | 43° |
| 2026-04-21 22:04 | -34.84162 | -56.03611 | 73 ft | 0 kts | 54° |
| 2026-04-21 22:05 | -34.84022 | -56.03380 | 76 ft | 83 kts | 53° |
| 2026-04-21 22:05 | -34.83497 | -56.02514 | 203 ft | 157 kts | 54° |
| 2026-04-21 22:05 | -34.83073 | -56.01790 | 948 ft | 160 kts | 50° |
| 2026-04-21 22:05 | -34.82098 | -56.00169 | 2421 ft | 197 kts | 50° |
| 2026-04-21 22:06 | -34.81159 | -55.98704 | 2920 ft | 257 kts | 51° |
| 2026-04-21 22:06 | -34.80121 | -55.96902 | 2912 ft | 254 kts | 53° |
| 2026-04-21 22:06 | -34.79448 | -55.95740 | 3260 ft | 250 kts | 52° |
| 2026-04-21 22:06 | -34.78403 | -55.93980 | 3907 ft | 259 kts | 51° |
| 2026-04-21 22:07 | -34.77335 | -55.92177 | 4566 ft | 265 kts | 51° |
| 2026-04-21 22:07 | -34.76184 | -55.90443 | 5433 ft | 255 kts | 36° |
| 2026-04-21 22:07 | -34.74519 | -55.89540 | 6167 ft | 266 kts | 6° |
| 2026-04-21 22:07 | -34.72762 | -55.89723 | 6892 ft | 262 kts | 338° |
| 2026-04-21 22:08 | -34.71350 | -55.91042 | 7642 ft | 261 kts | 307° |
| 2026-04-21 22:08 | -34.70665 | -55.93085 | 8425 ft | 266 kts | 279° |
| 2026-04-21 22:08 | -34.70909 | -55.95337 | 9256 ft | 273 kts | 255° |
| 2026-04-21 22:08 | -34.71577 | -55.97491 | 10096 ft | 277 kts | 252° |
| 2026-04-21 22:09 | -34.72297 | -55.99756 | 10974 ft | 294 kts | 253° |
| 2026-04-21 22:09 | -34.72999 | -56.02109 | 11923 ft | 301 kts | 254° |
| 2026-04-21 22:09 | -34.73707 | -56.04526 | 12943 ft | 305 kts | 254° |
| 2026-04-21 22:09 | -34.74436 | -56.06979 | 14000 ft | 309 kts | 254° |
| 2026-04-21 22:10 | -34.75174 | -56.09457 | 14979 ft | 314 kts | 254° |
| 2026-04-21 22:10 | -34.75921 | -56.11974 | 16008 ft | 319 kts | 254° |
| 2026-04-21 22:10 | -34.76671 | -56.14506 | 17083 ft | 324 kts | 254° |
| 2026-04-21 22:10 | -34.77446 | -56.17129 | 17975 ft | 341 kts | 254° |
| 2026-04-21 22:11 | -34.78291 | -56.20018 | 18001 ft | 377 kts | 254° |
| 2026-04-21 22:11 | -34.79201 | -56.23075 | 18000 ft | 389 kts | 253° |
| 2026-04-21 22:11 | -34.80129 | -56.26187 | 18005 ft | 393 kts | 253° |
| 2026-04-21 22:11 | -34.81041 | -56.29286 | 18004 ft | 394 kts | 253° |
| 2026-04-21 22:12 | -34.81964 | -56.32430 | 18002 ft | 394 kts | 253° |
| 2026-04-21 22:12 | -34.82889 | -56.35574 | 18003 ft | 395 kts | 253° |
| 2026-04-21 22:12 | -34.83821 | -56.38738 | 18003 ft | 395 kts | 253° |
| 2026-04-21 22:12 | -34.84747 | -56.41891 | 18006 ft | 395 kts | 253° |
| 2026-04-21 22:13 | -34.85661 | -56.45011 | 18004 ft | 395 kts | 253° |
| 2026-04-21 22:13 | -34.86584 | -56.48165 | 18006 ft | 395 kts | 253° |
| 2026-04-21 22:13 | -34.87510 | -56.51324 | 18005 ft | 396 kts | 253° |
| 2026-04-21 22:13 | -34.88435 | -56.54491 | 18006 ft | 396 kts | 254° |
| 2026-04-21 22:14 | -34.89360 | -56.57659 | 18006 ft | 396 kts | 253° |
| 2026-04-21 22:14 | -34.90276 | -56.60800 | 18007 ft | 396 kts | 254° |
| 2026-04-21 22:14 | -34.91200 | -56.63972 | 18013 ft | 396 kts | 254° |
| 2026-04-21 22:14 | -34.92126 | -56.67155 | 18011 ft | 396 kts | 254° |
| 2026-04-21 22:15 | -34.93049 | -56.70330 | 18013 ft | 396 kts | 254° |
| 2026-04-21 22:15 | -34.93957 | -56.73455 | 18013 ft | 396 kts | 254° |
| 2026-04-21 22:15 | -34.94876 | -56.76625 | 18013 ft | 397 kts | 254° |
| 2026-04-21 22:15 | -34.95796 | -56.79801 | 18016 ft | 396 kts | 254° |
| 2026-04-21 22:16 | -34.96716 | -56.82980 | 18011 ft | 397 kts | 254° |
| 2026-04-21 22:16 | -34.97606 | -56.86165 | 18012 ft | 395 kts | 257° |
| 2026-04-21 22:16 | -34.98131 | -56.89448 | 18004 ft | 392 kts | 265° |
| 2026-04-21 22:16 | -34.98271 | -56.92718 | 17998 ft | 390 kts | 273° |
| 2026-04-21 22:17 | -34.98236 | -56.96038 | 18003 ft | 390 kts | 272° |
| 2026-04-21 22:17 | -34.98245 | -56.99353 | 18004 ft | 390 kts | 272° |
| 2026-04-21 22:17 | -34.98242 | -57.02663 | 17994 ft | 390 kts | 272° |
| 2026-04-21 22:17 | -34.98218 | -57.05922 | 17997 ft | 390 kts | 272° |
| 2026-04-21 22:18 | -34.98200 | -57.09236 | 17999 ft | 390 kts | 272° |
| 2026-04-21 22:18 | -34.98190 | -57.12548 | 17995 ft | 390 kts | 272° |
| 2026-04-21 22:18 | -34.98175 | -57.15854 | 17996 ft | 389 kts | 272° |
| 2026-04-21 22:18 | -34.98157 | -57.19175 | 17993 ft | 389 kts | 272° |
| 2026-04-21 22:19 | -34.98139 | -57.22428 | 17989 ft | 390 kts | 272° |
| 2026-04-21 22:19 | -34.98121 | -57.25723 | 17991 ft | 389 kts | 272° |
| 2026-04-21 22:19 | -34.98097 | -57.29046 | 17990 ft | 389 kts | 273° |
| 2026-04-21 22:19 | -34.97603 | -57.32260 | 17953 ft | 385 kts | 288° |
| 2026-04-21 22:20 | -34.96676 | -57.35247 | 17722 ft | 367 kts | 293° |
| 2026-04-21 22:20 | -34.95709 | -57.38046 | 17512 ft | 358 kts | 292° |
| 2026-04-21 22:20 | -34.94857 | -57.40890 | 17298 ft | 356 kts | 288° |
| 2026-04-21 22:20 | -34.94150 | -57.43790 | 17094 ft | 355 kts | 287° |
| 2026-04-21 22:21 | -34.93403 | -57.46664 | 16884 ft | 355 kts | 289° |
| 2026-04-21 22:21 | -34.92592 | -57.49494 | 16677 ft | 353 kts | 290° |
| 2026-04-21 22:21 | -34.91801 | -57.52322 | 16478 ft | 352 kts | 289° |
| 2026-04-21 22:21 | -34.91046 | -57.55127 | 16272 ft | 351 kts | 289° |
| 2026-04-21 22:22 | -34.90277 | -57.57955 | 16024 ft | 351 kts | 289° |
| 2026-04-21 22:22 | -34.89497 | -57.60771 | 15802 ft | 350 kts | 289° |
| 2026-04-21 22:22 | -34.88723 | -57.63579 | 15566 ft | 349 kts | 289° |
| 2026-04-21 22:22 | -34.87956 | -57.66375 | 15325 ft | 348 kts | 289° |
| 2026-04-21 22:23 | -34.87185 | -57.69169 | 15085 ft | 346 kts | 289° |
| 2026-04-21 22:23 | -34.86427 | -57.71919 | 14846 ft | 345 kts | 289° |
| 2026-04-21 22:23 | -34.85663 | -57.74683 | 14605 ft | 344 kts | 289° |
| 2026-04-21 22:23 | -34.84899 | -57.77447 | 14373 ft | 343 kts | 289° |
| 2026-04-21 22:24 | -34.84135 | -57.80208 | 14081 ft | 343 kts | 289° |
| 2026-04-21 22:24 | -34.83373 | -57.82959 | 13777 ft | 341 kts | 289° |
| 2026-04-21 22:24 | -34.82619 | -57.85679 | 13439 ft | 339 kts | 289° |
| 2026-04-21 22:24 | -34.81864 | -57.88398 | 13095 ft | 339 kts | 289° |
| 2026-04-21 22:25 | -34.81118 | -57.91086 | 12770 ft | 338 kts | 289° |
| 2026-04-21 22:25 | -34.80363 | -57.93799 | 12439 ft | 337 kts | 289° |
| 2026-04-21 22:25 | -34.79615 | -57.96489 | 12114 ft | 329 kts | 289° |
| 2026-04-21 22:25 | -34.78912 | -57.99011 | 11766 ft | 308 kts | 289° |
| 2026-04-21 22:26 | -34.78240 | -58.01424 | 11325 ft | 295 kts | 289° |
| 2026-04-21 22:26 | -34.77582 | -58.03774 | 10880 ft | 285 kts | 289° |
| 2026-04-21 22:26 | -34.76965 | -58.05990 | 10415 ft | 277 kts | 289° |
| 2026-04-21 22:26 | -34.76342 | -58.08213 | 9869 ft | 274 kts | 289° |
| 2026-04-21 22:27 | -34.75728 | -58.10411 | 9219 ft | 274 kts | 289° |
| 2026-04-21 22:27 | -34.75114 | -58.12606 | 8581 ft | 274 kts | 289° |
| 2026-04-21 22:27 | -34.74500 | -58.14793 | 7965 ft | 273 kts | 290° |
| 2026-04-21 22:27 | -34.73886 | -58.16984 | 7372 ft | 273 kts | 290° |
| 2026-04-21 22:28 | -34.73287 | -58.19124 | 7085 ft | 262 kts | 290° |
| 2026-04-21 22:28 | -34.72704 | -58.21195 | 6796 ft | 260 kts | 290° |
| 2026-04-21 22:28 | -34.72116 | -58.23284 | 6508 ft | 262 kts | 290° |
| 2026-04-21 22:28 | -34.71527 | -58.25376 | 6301 ft | 261 kts | 290° |
| 2026-04-21 22:29 | -34.70939 | -58.27461 | 6123 ft | 261 kts | 291° |
| 2026-04-21 22:29 | -34.70350 | -58.29552 | 6053 ft | 261 kts | 290° |
| 2026-04-21 22:29 | -34.69761 | -58.31640 | 6003 ft | 261 kts | 291° |
| 2026-04-21 22:29 | -34.69179 | -58.33704 | 5954 ft | 261 kts | 290° |
| 2026-04-21 22:30 | -34.68587 | -58.35800 | 5927 ft | 261 kts | 291° |
| 2026-04-21 22:30 | -34.67996 | -58.37889 | 5903 ft | 262 kts | 290° |
| 2026-04-21 22:30 | -34.67405 | -58.39985 | 5873 ft | 261 kts | 290° |
| 2026-04-21 22:30 | -34.66817 | -58.42064 | 5851 ft | 261 kts | 291° |
| 2026-04-21 22:31 | -34.66225 | -58.44153 | 5824 ft | 262 kts | 290° |
| 2026-04-21 22:31 | -34.65628 | -58.46255 | 5719 ft | 265 kts | 291° |
| 2026-04-21 22:31 | -34.65036 | -58.48345 | 5547 ft | 263 kts | 291° |
| 2026-04-21 22:31 | -34.64442 | -58.50437 | 5366 ft | 262 kts | 291° |
| 2026-04-21 22:32 | -34.63850 | -58.52524 | 5177 ft | 261 kts | 291° |
| 2026-04-21 22:32 | -34.63256 | -58.54612 | 5000 ft | 260 kts | 291° |
| 2026-04-21 22:32 | -34.62673 | -58.56667 | 4994 ft | 257 kts | 291° |
| 2026-04-21 22:32 | -34.62083 | -58.58730 | 5002 ft | 260 kts | 291° |
| 2026-04-21 22:33 | -34.61491 | -58.60809 | 4995 ft | 260 kts | 291° |
| 2026-04-21 22:33 | -34.60907 | -58.62866 | 5000 ft | 260 kts | 291° |
| 2026-04-21 22:33 | -34.60314 | -58.64942 | 4998 ft | 261 kts | 291° |
| 2026-04-21 22:33 | -34.59719 | -58.67027 | 4993 ft | 261 kts | 291° |
| 2026-04-21 22:34 | -34.59121 | -58.69117 | 5003 ft | 262 kts | 292° |
| 2026-04-21 22:34 | -34.58520 | -58.71203 | 4997 ft | 260 kts | 293° |
| 2026-04-21 22:34 | -34.57477 | -58.72965 | 4801 ft | 260 kts | 323° |
| 2026-04-21 22:34 | -34.55820 | -58.73635 | 4554 ft | 258 kts | 358° |
| 2026-04-21 22:35 | -34.54071 | -58.73140 | 4326 ft | 259 kts | 22° |
| 2026-04-21 22:35 | -34.52663 | -58.71786 | 4092 ft | 261 kts | 49° |
| 2026-04-21 22:35 | -34.51693 | -58.69926 | 3868 ft | 260 kts | 58° |
| 2026-04-21 22:35 | -34.50795 | -58.68068 | 3700 ft | 258 kts | 56° |
| 2026-04-21 22:36 | -34.48773 | -58.64497 | 3365 ft | 255 kts | 53° |
| 2026-04-21 22:36 | -34.47881 | -58.62638 | 3186 ft | 256 kts | 66° |
| 2026-04-21 22:36 | -34.47429 | -58.60540 | 2998 ft | 257 kts | 80° |
| 2026-04-21 22:37 | -34.47422 | -58.58419 | 2994 ft | 255 kts | 94° |
| 2026-04-21 22:37 | -34.47847 | -58.56388 | 2984 ft | 241 kts | 109° |
| 2026-04-21 22:37 | -34.48611 | -58.54650 | 2980 ft | 226 kts | 122° |
| 2026-04-21 22:37 | -34.49497 | -58.53126 | 2985 ft | 215 kts | 121° |
| 2026-04-21 22:38 | -34.50306 | -58.51641 | 2723 ft | 201 kts | 120° |
| 2026-04-21 22:38 | -34.51072 | -58.50255 | 2419 ft | 199 kts | 121° |
| 2026-04-21 22:38 | -34.51740 | -58.49079 | 2159 ft | 152 kts | 122° |
| 2026-04-21 22:38 | -34.52296 | -58.48105 | 1743 ft | 122 kts | 122° |
| 2026-04-21 22:39 | -34.52789 | -58.47357 | 1269 ft | 110 kts | 123° |
| 2026-04-21 22:39 | -34.53210 | -58.46576 | 1123 ft | 124 kts | 120° |
| 2026-04-21 22:39 | -34.53734 | -58.45594 | 1134 ft | 138 kts | 118° |
| 2026-04-21 22:39 | -34.54174 | -58.44714 | 810 ft | 115 kts | 121° |
| 2026-04-21 22:40 | -34.54644 | -58.43877 | 542 ft | 130 kts | 125° |
| 2026-04-21 22:40 | -34.55141 | -58.42978 | 172 ft | 128 kts | 124° |
| 2026-04-21 22:40 | -34.55630 | -58.42109 | 26 ft | 119 kts | 124° |
| 2026-04-21 22:40 | -34.56014 | -58.41420 | 22 ft | 72 kts | 123° |
| 2026-04-21 22:41 | -34.56195 | -58.41095 | 25 ft | 38 kts | 124° |
| 2026-04-21 22:41 | -34.56329 | -58.40853 | 23 ft | 23 kts | 123° |
| 2026-04-21 22:41 | -34.56399 | -58.40724 | 21 ft | 15 kts | 124° |
| 2026-04-21 22:41 | -34.56463 | -58.40726 | 20 ft | 9 kts | 247° |
| 2026-04-21 22:42 | -34.56471 | -58.40747 | 20 ft | 0 kts | 246° |
| 2026-04-21 22:42 | -34.56471 | -58.40749 | 20 ft | 2 kts | 246° |
| 2026-04-21 22:42 | -34.56483 | -58.40782 | 21 ft | 6 kts | 246° |
| 2026-04-21 22:42 | -34.56513 | -58.40868 | 24 ft | 18 kts | 250° |
| 2026-04-21 22:43 | -34.56476 | -58.40969 | 23 ft | 14 kts | 304° |
| 2026-04-21 22:43 | -34.56411 | -58.41074 | 22 ft | 17 kts | 309° |
| 2026-04-21 22:43 | -34.56345 | -58.41207 | 23 ft | 20 kts | 304° |
| 2026-04-21 22:43 | -34.56265 | -58.41352 | 21 ft | 22 kts | 303° |
| 2026-04-21 22:44 | -34.56223 | -58.41427 | 21 ft | 10 kts | 303° |
| 2026-04-21 22:44 | -34.56191 | -58.41448 | 21 ft | 3 kts | 40° |
| 2026-04-21 22:44 | -34.56167 | -58.41426 | 21 ft | 0 kts | 33° |